Main page
METAR-TAF:

METAR-TAF

Airports :

Montgomery County Airpark

Gaithersburg, Maryland, United States

latitude: 39-10-06N, longitude: 077-09-58W, elevation: 538 ft

Current weather observation

The report was made 1 hour and 0 minutes ago, at 19:56 UTC
Wind 6 mph from the West/Northwest
Temperature 52°F
Humidity 58%
Pressure 29.81 in. Hg
Visibility: 10 miles
Overcast at a height of 6000 ft

METAR: KGAI 011956Z AUTO 29005KT 10SM OVC060 11/03 A2981 RMK AO2 SLP109 T01060033

Time: 16:56 (20:56 UTC)


TAF: missing

Weather observations and forecasts of more than 4000 airports (METAR and TAF reports).

The available stations are represented by yellow and red dots on the map.

Hover mouse over dot to see the name of the station.

Then click to see weather observations and forecasts.

To change the map : click on the green buttons with a black cross to zoom in, on the green button with a dash to zoom out, or on the green arrows for adjacent maps.


METAR-TAF: